createdAt,value
2023-05-08T00:00:50.792Z,101605.50
2023-05-08T00:03:17.699Z,101620.31
2023-05-08T00:05:44.546Z,101610.84
2023-05-08T00:08:11.340Z,101603.75
2023-05-08T00:10:38.115Z,101601.06
2023-05-08T00:13:04.993Z,101597.59
2023-05-08T00:15:31.763Z,101607.94
2023-05-08T00:17:58.755Z,101607.00
2023-05-08T00:20:25.604Z,101606.03
2023-05-08T00:22:52.379Z,101604.31
2023-05-08T00:25:19.090Z,101602.53
2023-05-08T00:27:46.000Z,101610.47
2023-05-08T00:30:13.698Z,101597.75
2023-05-08T00:32:41.070Z,101597.00
2023-05-08T00:35:08.209Z,101600.56
2023-05-08T00:37:35.341Z,101600.66
2023-05-08T00:40:02.553Z,101601.56
2023-05-08T00:42:29.447Z,101609.44
2023-05-08T00:44:56.375Z,101597.31
2023-05-08T00:47:23.532Z,101610.25
2023-05-08T00:49:50.482Z,101609.47
2023-05-08T00:52:19.384Z,101615.44
2023-05-08T00:54:49.627Z,101610.31
2023-05-08T00:57:16.957Z,101601.75
2023-05-08T00:59:45.549Z,101606.00
2023-05-08T01:02:12.594Z,101610.31
2023-05-08T01:04:39.742Z,101611.22
2023-05-08T01:07:06.517Z,101617.28
2023-05-08T01:09:35.924Z,101619.78
2023-05-08T01:12:27.576Z,101623.03
2023-05-08T01:15:00.497Z,101620.31
2023-05-08T01:17:46.456Z,101626.25
2023-05-08T01:20:48.582Z,101633.94
2023-05-08T01:23:34.358Z,101632.38
2023-05-08T01:26:38.413Z,101638.50
2023-05-08T01:29:43.104Z,101630.03
2023-05-08T01:32:24.999Z,101642.13
2023-05-08T01:35:10.926Z,101635.28
2023-05-08T01:37:50.068Z,101638.78
2023-05-08T01:40:16.859Z,101646.56
2023-05-08T01:42:50.973Z,101640.59
2023-05-08T01:45:25.909Z,101642.31
2023-05-08T01:48:03.771Z,101635.44
2023-05-08T01:50:38.582Z,101634.66
2023-05-08T01:53:11.141Z,101627.81
2023-05-08T01:55:42.345Z,101626.13
2023-05-08T01:58:11.721Z,101619.25
2023-05-08T02:00:41.562Z,101621.84
2023-05-08T02:03:10.909Z,101617.53
2023-05-08T02:05:38.724Z,101618.38
2023-05-08T02:08:09.345Z,101620.97
2023-05-08T02:10:37.266Z,101614.03
2023-05-08T02:13:04.983Z,101616.66
2023-05-08T02:15:36.654Z,101617.47
2023-05-08T02:18:07.446Z,101607.97
2023-05-08T02:20:34.438Z,101611.47
2023-05-08T02:23:02.674Z,101608.84
2023-05-08T02:25:31.185Z,101602.81
2023-05-08T02:27:59.160Z,101598.50
2023-05-08T02:30:27.800Z,101601.94
2023-05-08T02:32:59.612Z,101606.25
2023-05-08T02:35:29.409Z,101595.03
2023-05-08T02:37:58.144Z,101597.59
2023-05-08T02:40:27.751Z,101598.44
2023-05-08T02:42:55.648Z,101606.13
2023-05-08T02:45:27.925Z,101612.94
2023-05-08T02:48:20.496Z,101612.72
2023-05-08T02:51:10.918Z,101615.88
2023-05-08T02:53:45.464Z,101610.31
2023-05-08T02:56:22.091Z,101611.69
2023-05-08T02:59:19.106Z,101609.69
2023-05-08T03:02:09.781Z,101597.81
2023-05-08T03:04:45.145Z,101593.63
2023-05-08T03:07:12.996Z,101595.41
2023-05-08T03:09:50.551Z,101593.59
2023-05-08T03:12:23.628Z,101595.28
2023-05-08T03:15:13.525Z,101597.13
2023-05-08T03:17:43.802Z,101597.19
2023-05-08T03:20:15.108Z,101586.72
2023-05-08T03:22:44.517Z,101584.22
2023-05-08T03:25:14.106Z,101592.88
2023-05-08T03:27:41.965Z,101590.25
2023-05-08T03:30:09.779Z,101597.22
2023-05-08T03:32:40.162Z,101592.84
2023-05-08T03:35:09.313Z,101579.84
2023-05-08T03:37:36.357Z,101579.84
2023-05-08T03:40:03.842Z,101585.91
2023-05-08T03:42:31.609Z,101577.31
2023-05-08T03:45:01.007Z,101584.19
2023-05-08T03:47:29.120Z,101575.59
2023-05-08T03:49:57.451Z,101581.59
2023-05-08T03:52:26.058Z,101584.88
2023-05-08T03:54:53.571Z,101582.97
2023-05-08T03:57:20.461Z,101579.25
2023-05-08T04:00:00.422Z,101576.66
2023-05-08T04:02:28.002Z,101583.69
2023-05-08T04:05:10.545Z,101582.72
2023-05-08T04:07:50.940Z,101586.22
2023-05-08T04:10:29.400Z,101589.78
2023-05-08T04:13:02.177Z,101592.34
2023-05-08T04:15:31.673Z,101592.97
2023-05-08T04:18:06.961Z,101593.56
2023-05-08T04:20:34.629Z,101596.97
2023-05-08T04:23:03.741Z,101603.91
2023-05-08T04:25:33.685Z,101608.16
2023-05-08T04:28:02.595Z,101613.00
2023-05-08T04:30:31.099Z,101615.41
2023-05-08T04:32:59.705Z,101614.69
2023-05-08T04:35:26.936Z,101610.72
2023-05-08T04:37:54.478Z,101611.63
2023-05-08T04:40:21.520Z,101616.00
2023-05-08T04:42:48.466Z,101616.81
2023-05-08T04:45:18.703Z,101620.34
2023-05-08T04:47:45.613Z,101628.03
2023-05-08T04:50:12.600Z,101629.66
2023-05-08T04:52:39.643Z,101627.97
2023-05-08T04:55:07.368Z,101626.31
2023-05-08T04:57:36.461Z,101631.53
2023-05-08T05:00:05.149Z,101628.28
2023-05-08T05:02:35.066Z,101630.16
2023-05-08T05:05:02.313Z,101635.47
2023-05-08T05:07:29.911Z,101630.38
2023-05-08T05:09:57.409Z,101638.16
2023-05-08T05:12:24.185Z,101645.03
2023-05-08T05:14:51.034Z,101646.81
2023-05-08T05:17:18.260Z,101639.97
2023-05-08T05:19:45.173Z,101637.47
2023-05-08T05:22:12.532Z,101647.88
2023-05-08T05:24:40.003Z,101647.94
2023-05-08T05:27:06.814Z,101651.44
2023-05-08T05:29:33.656Z,101643.78
2023-05-08T05:32:00.583Z,101649.06
2023-05-08T05:34:27.482Z,101644.00
2023-05-08T05:36:54.419Z,101641.59
2023-05-08T05:39:21.285Z,101637.47
2023-05-08T05:41:48.677Z,101634.97
2023-05-08T05:44:15.829Z,101640.28
2023-05-08T05:46:44.438Z,101631.78
2023-05-08T05:49:12.343Z,101631.91
2023-05-08T05:51:39.486Z,101634.63
2023-05-08T05:54:06.436Z,101632.13
2023-05-08T05:56:33.325Z,101627.84
2023-05-08T05:59:00.321Z,101627.06
2023-05-08T06:01:29.166Z,101629.75
2023-05-08T06:03:56.851Z,101627.19
2023-05-08T06:06:23.893Z,101629.00
2023-05-08T06:08:50.654Z,101625.56
2023-05-08T06:11:17.482Z,101633.38
2023-05-08T06:13:44.483Z,101634.31
2023-05-08T06:16:12.312Z,101636.19
2023-05-08T06:18:39.366Z,101631.97
2023-05-08T06:21:06.189Z,101624.25
2023-05-08T06:23:33.153Z,101621.78
2023-05-08T06:25:59.898Z,101625.28
2023-05-08T06:28:27.488Z,101624.44
2023-05-08T06:30:54.399Z,101626.28
2023-05-08T06:33:21.316Z,101613.31
2023-05-08T06:35:48.833Z,101616.91
2023-05-08T06:38:15.963Z,101623.88
2023-05-08T06:40:44.553Z,101625.69
2023-05-08T06:43:12.326Z,101622.25
2023-05-08T06:45:39.535Z,101611.13
2023-05-08T06:48:07.045Z,101615.50
2023-05-08T06:50:33.994Z,101618.13
2023-05-08T06:53:00.699Z,101620.81
2023-05-08T06:55:27.417Z,101626.94
2023-05-08T06:57:57.291Z,101620.03
2023-05-08T07:00:24.149Z,101622.69
2023-05-08T07:02:52.313Z,101627.06
2023-05-08T07:05:19.993Z,101627.06
2023-05-08T07:07:47.094Z,101622.75
2023-05-08T07:10:14.140Z,101623.63
2023-05-08T07:12:41.447Z,101624.53
2023-05-08T07:15:24.130Z,101620.28
2023-05-08T07:17:52.790Z,101622.09
2023-05-08T07:20:19.768Z,101631.63
2023-05-08T07:22:46.684Z,101634.31
2023-05-08T07:25:13.600Z,101632.63
2023-05-08T07:27:40.674Z,101637.81
2023-05-08T07:30:08.136Z,101633.50
2023-05-08T07:32:35.400Z,101640.41
2023-05-08T07:35:02.997Z,101634.38
2023-05-08T07:37:29.784Z,101636.16
2023-05-08T07:39:56.524Z,101630.19
2023-05-08T07:42:23.564Z,101639.69
2023-05-08T07:44:54.955Z,101642.31
2023-05-08T07:47:22.804Z,101638.91
2023-05-08T07:49:49.585Z,101634.53
2023-05-08T07:52:16.819Z,101623.31
2023-05-08T07:54:44.172Z,101625.03
2023-05-08T07:57:11.775Z,101625.06
2023-05-08T07:59:38.872Z,101622.47
2023-05-08T08:02:05.759Z,101612.09
2023-05-08T08:04:32.750Z,101615.56
2023-05-08T08:06:59.615Z,101621.63
2023-05-08T08:09:29.084Z,101614.72
2023-05-08T08:11:55.810Z,101614.69
2023-05-08T08:14:22.657Z,101613.88
2023-05-08T08:16:49.333Z,101612.13
2023-05-08T08:19:16.071Z,101606.91
2023-05-08T08:21:43.727Z,101606.94
2023-05-08T08:24:10.758Z,101600.84
2023-05-08T08:26:37.537Z,101599.13
2023-05-08T08:29:04.686Z,101605.22
2023-05-08T08:31:31.495Z,101589.63
2023-05-08T08:33:58.307Z,101600.84
2023-05-08T08:36:25.027Z,101593.94
2023-05-08T08:38:52.250Z,101586.09
2023-05-08T08:41:19.048Z,101588.72
2023-05-08T08:43:46.071Z,101585.25
2023-05-08T08:46:15.338Z,101579.19
2023-05-08T08:48:47.078Z,101592.09
2023-05-08T08:51:22.947Z,101589.44
2023-05-08T08:54:05.263Z,101602.38
2023-05-08T08:56:33.424Z,101593.72
2023-05-08T08:59:01.911Z,101590.25
2023-05-08T09:01:30.281Z,101588.53
2023-05-08T09:03:59.179Z,101592.00
2023-05-08T09:06:27.670Z,101591.13
2023-05-08T09:08:58.832Z,101598.91
2023-05-08T09:11:25.950Z,101599.75
2023-05-08T09:13:52.861Z,101598.91
2023-05-08T09:16:23.402Z,101604.13
2023-05-08T09:18:50.251Z,101604.97
2023-05-08T09:21:17.175Z,101599.78
2023-05-08T09:24:04.356Z,101598.03
2023-05-08T09:26:39.569Z,101603.25
2023-05-08T09:29:10.432Z,101604.06
2023-05-08T09:31:41.629Z,101607.50
2023-05-08T09:34:09.403Z,101610.97
2023-05-08T09:36:36.989Z,101615.31
2023-05-08T09:39:03.994Z,101610.13
2023-05-08T09:41:30.865Z,101615.25
2023-05-08T09:44:03.365Z,101623.91
2023-05-08T09:46:30.918Z,101628.97
2023-05-08T09:48:59.400Z,101641.06
2023-05-08T09:51:29.183Z,101641.09
2023-05-08T09:53:57.888Z,101641.91
2023-05-08T09:56:30.476Z,101644.44
2023-05-08T09:58:57.295Z,101629.69
2023-05-08T10:01:31.640Z,101637.56
2023-05-08T10:03:59.470Z,101645.41
2023-05-08T10:06:28.454Z,101642.84
2023-05-08T10:09:08.250Z,101654.06
2023-05-08T10:11:35.186Z,101643.66
2023-05-08T10:14:01.981Z,101643.72
2023-05-08T10:16:30.037Z,101650.66
2023-05-08T10:19:02.144Z,101642.84
2023-05-08T10:21:30.197Z,101646.34
2023-05-08T10:24:04.981Z,101636.00
2023-05-08T10:26:37.297Z,101638.59
2023-05-08T10:29:11.424Z,101642.84
2023-05-08T10:31:44.012Z,101647.13
2023-05-08T10:34:17.955Z,101644.53
2023-05-08T10:36:46.332Z,101654.16
2023-05-08T10:39:15.531Z,101643.75
2023-05-08T10:41:42.849Z,101646.31
2023-05-08T10:44:10.796Z,101651.53
2023-05-08T10:46:40.959Z,101647.97
2023-05-08T10:49:20.415Z,101640.97
2023-05-08T10:52:16.981Z,101638.31
2023-05-08T10:55:04.776Z,101636.53
2023-05-08T10:57:33.906Z,101640.84
2023-05-08T11:00:00.976Z,101633.00
2023-05-08T11:02:37.021Z,101638.25
2023-05-08T11:05:17.713Z,101629.63
2023-05-08T11:07:57.499Z,101632.28
2023-05-08T11:10:32.160Z,101627.94
2023-05-08T11:13:01.338Z,101637.44
2023-05-08T11:15:38.882Z,101633.13
2023-05-08T11:18:11.904Z,101632.16
2023-05-08T11:20:40.930Z,101639.91
2023-05-08T11:23:27.412Z,101640.78
2023-05-08T11:26:12.224Z,101641.56
2023-05-08T11:28:41.174Z,101642.44
2023-05-08T11:31:08.772Z,101637.25
2023-05-08T11:33:40.969Z,101635.56
2023-05-08T11:36:19.215Z,101634.69
2023-05-08T11:39:07.766Z,101636.34
2023-05-08T11:41:34.827Z,101637.97
2023-05-08T11:44:04.806Z,101636.19
2023-05-08T11:46:51.945Z,101633.75
2023-05-08T11:49:29.842Z,101637.22
2023-05-08T11:51:59.255Z,101635.31
2023-05-08T11:54:30.542Z,101630.97
2023-05-08T11:56:57.741Z,101631.72
2023-05-08T11:59:24.623Z,101624.63
2023-05-08T12:04:21.803Z,101627.19
2023-05-08T12:06:50.997Z,101623.88
2023-05-08T12:09:18.873Z,101634.56
2023-05-08T12:11:45.739Z,101624.28
2023-05-08T12:14:15.081Z,101626.75
2023-05-08T12:16:41.883Z,101621.53
2023-05-08T12:19:13.331Z,101617.22
2023-05-08T12:21:47.719Z,101616.44
2023-05-08T12:24:25.511Z,101616.50
2023-05-08T12:26:56.615Z,101619.97
2023-05-08T12:29:24.066Z,101616.59
2023-05-08T12:31:52.765Z,101618.38
2023-05-08T12:34:20.582Z,101608.94
2023-05-08T12:36:47.415Z,101616.78
2023-05-08T12:39:18.877Z,101609.88
2023-05-08T12:41:52.926Z,101610.69
2023-05-08T12:44:24.330Z,101612.41
2023-05-08T12:46:53.053Z,101615.78
2023-05-08T12:49:32.481Z,101621.00
2023-05-08T12:52:07.310Z,101610.69
2023-05-08T12:54:39.274Z,101618.53
2023-05-08T12:57:13.441Z,101612.41
2023-05-08T12:59:41.345Z,101611.53
2023-05-08T13:02:19.333Z,101608.94
2023-05-08T13:04:46.588Z,101609.00
2023-05-08T13:07:13.606Z,101610.81
2023-05-08T13:09:51.897Z,101616.13
2023-05-08T13:12:18.685Z,101618.72
2023-05-08T13:14:45.454Z,101611.84
2023-05-08T13:17:17.577Z,101611.00
2023-05-08T13:19:44.364Z,101604.94
2023-05-08T13:22:11.041Z,101602.34
2023-05-08T13:24:37.973Z,101591.97
2023-05-08T13:27:04.657Z,101594.59
2023-05-08T13:29:31.428Z,101591.94
2023-05-08T13:31:58.190Z,101588.47
2023-05-08T13:34:25.686Z,101584.13
2023-05-08T13:36:52.586Z,101578.09
2023-05-08T13:39:19.377Z,101571.16
2023-05-08T13:41:46.133Z,101572.94
2023-05-08T13:44:12.869Z,101572.06
2023-05-08T13:46:39.616Z,101559.91
2023-05-08T13:49:06.311Z,101563.41
2023-05-08T13:51:33.074Z,101559.97
2023-05-08T13:53:59.794Z,101559.13
2023-05-08T13:56:26.581Z,101553.91
2023-05-08T13:58:53.304Z,101549.63
2023-05-08T14:01:26.400Z,101555.69
2023-05-08T14:03:54.589Z,101552.22
2023-05-08T14:06:21.607Z,101561.78
2023-05-08T14:08:50.920Z,101554.88
2023-05-08T14:11:19.038Z,101552.25
2023-05-08T14:13:46.103Z,101554.88
2023-05-08T14:16:14.470Z,101547.94
2023-05-08T14:18:41.247Z,101555.75
2023-05-08T14:21:08.111Z,101550.53
2023-05-08T14:23:36.137Z,101552.25
2023-05-08T14:26:03.063Z,101553.13
2023-05-08T14:28:29.938Z,101554.78
2023-05-08T14:30:57.016Z,101560.78
2023-05-08T14:33:23.928Z,101559.94
2023-05-08T14:35:50.998Z,101559.00
2023-05-08T14:38:17.686Z,101556.41
2023-05-08T14:40:44.646Z,101553.00
2023-05-08T14:43:11.369Z,101557.31
2023-05-08T14:45:38.383Z,101557.34
2023-05-08T14:48:06.240Z,101556.38
2023-05-08T14:50:33.077Z,101552.03
2023-05-08T14:53:00.084Z,101554.66
2023-05-08T14:55:27.171Z,101553.75
2023-05-08T14:57:54.591Z,101556.28
2023-05-08T15:00:21.507Z,101556.22
2023-05-08T15:02:48.404Z,101556.84
2023-05-08T15:05:19.892Z,101556.78
2023-05-08T15:07:49.580Z,101548.84
2023-05-08T15:10:16.495Z,101548.56
2023-05-08T15:12:43.458Z,101539.63
2023-05-08T15:15:10.724Z,101541.31
2023-05-08T15:17:38.018Z,101542.09
2023-05-08T15:20:06.202Z,101549.03
2023-05-08T15:22:32.983Z,101549.75
2023-05-08T15:25:02.860Z,101545.38
2023-05-08T15:27:30.387Z,101540.13
2023-05-08T15:29:57.412Z,101547.22
2023-05-08T15:32:24.878Z,101544.69
2023-05-08T15:34:51.937Z,101548.16
2023-05-08T15:37:18.704Z,101555.97
2023-05-08T15:39:45.509Z,101549.97
2023-05-08T15:42:12.203Z,101555.25
2023-05-08T15:44:54.151Z,101560.72
2023-05-08T15:47:23.379Z,101562.56
2023-05-08T15:49:50.986Z,101557.31
2023-05-08T15:52:19.712Z,101565.16
2023-05-08T15:54:47.160Z,101559.09
2023-05-08T15:57:14.184Z,101552.13
2023-05-08T15:59:41.270Z,101554.75
2023-05-08T16:02:08.614Z,101554.81
2023-05-08T16:04:35.799Z,101568.78
2023-05-08T16:07:05.306Z,101555.84
2023-05-08T16:09:32.106Z,101560.22
2023-05-08T16:12:01.427Z,101565.47
2023-05-08T16:14:28.254Z,101564.56
2023-05-08T16:16:55.066Z,101570.53
2023-05-08T16:19:21.844Z,101558.28
2023-05-08T16:21:48.661Z,101563.50
2023-05-08T16:24:15.490Z,101567.09
2023-05-08T16:26:42.234Z,101565.44
2023-05-08T16:29:08.955Z,101564.66
2023-05-08T16:31:35.962Z,101560.34
2023-05-08T16:34:02.770Z,101569.88
2023-05-08T16:36:29.688Z,101565.56
2023-05-08T16:38:56.528Z,101564.72
2023-05-08T16:41:23.376Z,101569.97
2023-05-08T16:43:50.065Z,101564.78
2023-05-08T16:46:20.775Z,101564.81
2023-05-08T16:48:53.486Z,101568.31
2023-05-08T16:51:20.541Z,101566.59
2023-05-08T16:53:47.305Z,101569.22
2023-05-08T16:56:14.028Z,101565.75
2023-05-08T16:58:43.244Z,101571.84
2023-05-08T17:01:11.729Z,101577.06
2023-05-08T17:03:38.832Z,101580.59
2023-05-08T17:06:09.335Z,101591.00
2023-05-08T17:08:36.177Z,101589.31
2023-05-08T17:11:02.978Z,101597.97
2023-05-08T17:13:30.174Z,101595.41
2023-05-08T17:15:57.803Z,101604.13
2023-05-08T17:18:24.700Z,101609.34
2023-05-08T17:20:51.404Z,101609.34
2023-05-08T17:23:18.172Z,101614.53
2023-05-08T17:25:45.071Z,101630.16
2023-05-08T17:28:12.074Z,101630.16
2023-05-08T17:30:39.015Z,101637.97
2023-05-08T17:33:07.230Z,101635.38
2023-05-08T17:35:34.351Z,101640.59
2023-05-08T17:38:01.136Z,101639.78
2023-05-08T17:40:28.874Z,101644.97
2023-05-08T17:42:55.815Z,101648.44
2023-05-08T17:45:22.543Z,101657.97
2023-05-08T17:47:49.640Z,101658.84
2023-05-08T17:50:16.527Z,101664.91
2023-05-08T17:52:43.451Z,101664.06
2023-05-08T17:55:10.661Z,101672.72
2023-05-08T17:57:37.455Z,101677.91
2023-05-08T18:00:06.123Z,101687.44
2023-05-08T18:02:35.402Z,101693.50
2023-05-08T18:05:02.314Z,101696.09
2023-05-08T18:07:29.187Z,101703.91
2023-05-08T18:09:56.052Z,101709.94
2023-05-08T18:12:22.789Z,101704.78
2023-05-08T18:14:49.558Z,101712.56
2023-05-08T18:17:19.276Z,101715.16
2023-05-08T18:19:46.693Z,101716.03
2023-05-08T18:22:13.674Z,101716.03
2023-05-08T18:24:51.853Z,101720.34
2023-05-08T18:30:17.068Z,101723.81
2023-05-08T18:32:44.003Z,101735.03
2023-05-08T18:35:10.913Z,101732.44
2023-05-08T18:37:37.818Z,101727.25
2023-05-08T18:40:05.257Z,101735.88
2023-05-08T18:42:32.035Z,101731.56
2023-05-08T18:45:00.353Z,101735.88
2023-05-08T18:47:27.043Z,101732.44
2023-05-08T18:49:53.959Z,101733.28
2023-05-08T18:52:20.735Z,101733.25
2023-05-08T18:54:47.605Z,101728.94
2023-05-08T18:57:14.472Z,101735.88
2023-05-08T18:59:41.307Z,101739.31
2023-05-08T19:02:08.039Z,101741.88
2023-05-08T19:04:38.181Z,101747.06
2023-05-08T19:07:05.004Z,101746.22
2023-05-08T19:09:33.723Z,101753.09
2023-05-08T19:12:00.623Z,101759.13
2023-05-08T19:14:27.513Z,101758.22
2023-05-08T19:16:56.331Z,101769.44
2023-05-08T19:19:28.373Z,101778.91
2023-05-08T19:21:55.300Z,101777.19
2023-05-08T19:24:24.138Z,101772.00
2023-05-08T19:26:51.042Z,101770.28
2023-05-08T19:29:17.796Z,101776.31
2023-05-08T19:31:44.670Z,101771.09
2023-05-08T19:34:11.638Z,101775.41
2023-05-08T19:36:38.491Z,101780.63
2023-05-08T19:39:05.539Z,101781.50
2023-05-08T19:41:32.589Z,101790.13
2023-05-08T19:43:59.633Z,101786.69
2023-05-08T19:46:26.723Z,101791.84
2023-05-08T19:48:53.875Z,101796.13
2023-05-08T19:51:20.952Z,101789.22
2023-05-08T19:53:47.790Z,101800.50
2023-05-08T19:56:14.723Z,101801.34
2023-05-08T19:58:41.626Z,101800.41
2023-05-08T20:01:09.030Z,101797.75
2023-05-08T20:03:40.281Z,101802.13
2023-05-08T20:06:07.365Z,101804.72
2023-05-08T20:08:34.278Z,101800.38
2023-05-08T20:11:04.020Z,101795.19
2023-05-08T20:13:30.807Z,101806.44
2023-05-08T20:15:59.023Z,101799.53
2023-05-08T20:18:26.400Z,101803.84
2023-05-08T20:20:53.366Z,101799.50
2023-05-08T20:23:20.199Z,101793.41
2023-05-08T20:25:48.107Z,101783.88
2023-05-08T20:28:16.031Z,101800.31
2023-05-08T20:30:43.277Z,101794.28
2023-05-08T20:33:10.414Z,101798.59
2023-05-08T20:35:37.602Z,101792.59
2023-05-08T20:38:04.626Z,101801.25
2023-05-08T20:40:34.641Z,101796.94
2023-05-08T20:43:01.648Z,101794.34
2023-05-08T20:45:28.648Z,101788.25
2023-05-08T20:47:55.694Z,101782.19
2023-05-08T20:50:22.556Z,101779.56
2023-05-08T20:52:49.888Z,101774.41
2023-05-08T20:55:16.874Z,101776.09
2023-05-08T20:57:43.678Z,101769.19
2023-05-08T21:00:10.980Z,101772.66
2023-05-08T21:02:40.190Z,101765.69
2023-05-08T21:05:07.461Z,101771.75
2023-05-08T21:07:34.796Z,101769.97
2023-05-08T21:10:01.974Z,101758.72
2023-05-08T21:12:28.904Z,101762.16
2023-05-08T21:14:55.834Z,101757.78
2023-05-08T21:17:22.740Z,101755.16
2023-05-08T21:19:49.496Z,101759.50
2023-05-08T21:22:17.485Z,101755.16
2023-05-08T21:24:45.037Z,101763.75
2023-05-08T21:27:11.957Z,101760.31
2023-05-08T21:29:39.178Z,101757.69
2023-05-08T21:32:08.759Z,101758.53
2023-05-08T21:34:36.837Z,101750.72
2023-05-08T21:37:03.707Z,101749.75
2023-05-08T21:39:30.468Z,101747.91
2023-05-08T21:41:57.311Z,101745.16
2023-05-08T21:44:24.169Z,101749.34
2023-05-08T21:46:50.904Z,101746.66
2023-05-08T21:49:17.788Z,101734.56
2023-05-08T21:51:45.839Z,101732.81
2023-05-08T21:54:12.755Z,101735.47
2023-05-08T21:56:39.720Z,101736.25
2023-05-08T21:59:07.471Z,101731.09
2023-05-08T22:01:34.312Z,101732.00
2023-05-08T22:04:01.325Z,101728.53
2023-05-08T22:06:28.154Z,101730.25
2023-05-08T22:08:55.169Z,101727.66
2023-05-08T22:11:22.375Z,101737.06
2023-05-08T22:13:50.458Z,101735.25
2023-05-08T22:16:18.086Z,101748.97
2023-05-08T22:18:44.838Z,101743.69
2023-05-08T22:21:11.570Z,101737.59
2023-05-08T22:23:38.390Z,101741.88
2023-05-08T22:26:05.232Z,101732.41
2023-05-08T22:28:32.259Z,101737.59
2023-05-08T22:30:59.200Z,101729.03
2023-05-08T22:33:26.075Z,101719.59
2023-05-08T22:35:52.838Z,101726.50
2023-05-08T22:38:19.555Z,101730.78
2023-05-08T22:40:47.778Z,101729.03
2023-05-08T22:43:14.801Z,101728.22
2023-05-08T22:45:41.706Z,101727.25
2023-05-08T22:48:08.673Z,101729.69
2023-05-08T22:50:35.626Z,101728.78
2023-05-08T22:53:07.916Z,101727.06
2023-05-08T22:55:35.365Z,101721.78
2023-05-08T22:58:03.890Z,101727.03
2023-05-08T23:00:30.729Z,101721.81
2023-05-08T23:02:57.486Z,101721.84
2023-05-08T23:05:24.239Z,101721.78
2023-05-08T23:07:51.096Z,101719.94
2023-05-08T23:10:18.111Z,101710.34
2023-05-08T23:12:47.661Z,101718.97
2023-05-08T23:15:14.651Z,101714.75
2023-05-08T23:17:41.468Z,101710.41
2023-05-08T23:20:08.996Z,101712.97
2023-05-08T23:22:35.623Z,101708.66
2023-05-08T23:25:02.475Z,101719.75
2023-05-08T23:27:29.262Z,101710.97
2023-05-08T23:29:56.161Z,101722.22
2023-05-08T23:32:22.986Z,101719.63
2023-05-08T23:34:49.803Z,101718.00
2023-05-08T23:37:16.502Z,101709.41
2023-05-08T23:39:43.246Z,101712.91
2023-05-08T23:42:09.993Z,101716.47
2023-05-08T23:44:36.783Z,101718.19
2023-05-08T23:47:03.741Z,101720.81
2023-05-08T23:49:30.635Z,101717.31
2023-05-08T23:51:57.286Z,101709.59
2023-05-08T23:54:24.084Z,101710.44
2023-05-08T23:56:50.808Z,101701.81
2023-05-08T23:59:17.593Z,101707.81
